Time;durP1;ratioP1;P1;durP2;ratioP2;P2;SDS_P1;SDS_P2;PMS_P1;PMS_P2;Temp;Humidity;BMP_temperature;BMP_pressure;BME280_temperature;BME280_humidity;BME280_pressure;Samples;Min_cycle;Max_cycle;Signal;HPM_P1;HPM_P2
2023/12/03 00:00:18;;;;;;;4.15;2.55;;;;;;;0.34;71.65;98953.66;4257392;33;34417;-86
2023/12/03 00:02:50;;;;;;;4.10;2.67;;;;;;;0.42;71.24;98973.34;4242785;33;33671;-87
2023/12/03 00:05:31;;;;;;;3.92;3.53;;;;;;;0.49;70.54;98987.06;4252794;33;33688;-86
2023/12/03 00:08:00;;;;;;;3.55;3.17;;;;;;;0.25;71.37;98977.34;4254704;33;32287;-87
2023/12/03 00:10:30;;;;;;;3.53;3.22;;;;;;;0.45;70.74;98990.41;4251169;33;34115;-88
2023/12/03 00:13:05;;;;;;;3.35;2.37;;;;;;;0.14;70.77;99002.63;4250099;33;33593;-87
2023/12/03 00:15:35;;;;;;;2.85;2.15;;;;;;;0.12;71.32;98998.34;4242692;33;35752;-86
2023/12/03 00:18:04;;;;;;;3.33;3.03;;;;;;;0.28;71.07;99013.09;4244770;33;32394;-86
2023/12/03 00:20:36;;;;;;;3.62;3.30;;;;;;;0.21;71.41;99024.87;4251740;33;33467;-86
2023/12/03 00:23:05;;;;;;;3.20;2.55;;;;;;;0.28;70.97;99010.53;4252615;33;32665;-86
2023/12/03 00:25:34;;;;;;;2.25;2.12;;;;;;;0.20;71.19;99004.47;4247612;33;33447;-87
2023/12/03 00:28:08;;;;;;;2.55;2.35;;;;;;;0.22;70.86;99030.84;4250370;33;33429;-87
2023/12/03 00:30:39;;;;;;;2.62;2.42;;;;;;;-0.01;71.15;99036.38;4245859;33;33928;-86
2023/12/03 00:33:08;;;;;;;1.83;1.73;;;;;;;-0.03;71.78;99053.34;4246052;33;33719;-86
2023/12/03 00:35:37;;;;;;;5.12;2.90;;;;;;;0.00;71.58;99083.16;4250776;33;33358;-86
2023/12/03 00:38:09;;;;;;;2.50;2.20;;;;;;;0.37;71.00;99073.63;4253646;33;33226;-86
2023/12/03 00:40:43;;;;;;;4.10;3.53;;;;;;;0.23;71.15;99086.13;4246971;33;34348;-89
2023/12/03 00:43:13;;;;;;;5.53;4.97;;;;;;;0.13;70.74;99063.84;4249024;33;34706;-86
2023/12/03 00:45:44;;;;;;;2.92;2.72;;;;;;;0.12;70.84;99074.84;4250210;33;33738;-86
2023/12/03 00:48:13;;;;;;;3.10;2.80;;;;;;;0.24;70.71;99085.28;4248894;33;34442;-86
2023/12/03 00:50:44;;;;;;;4.10;3.10;;;;;;;-0.04;71.27;99084.78;4251784;33;34395;-86
2023/12/03 00:53:13;;;;;;;5.45;2.58;;;;;;;0.09;71.15;99100.31;4252415;33;33687;-86
2023/12/03 00:55:46;;;;;;;4.85;3.50;;;;;;;0.18;70.39;99116.66;4242686;33;33901;-86
2023/12/03 00:58:16;;;;;;;5.82;3.40;;;;;;;0.16;70.98;99125.09;4254087;33;33149;-86
2023/12/03 01:00:48;;;;;;;3.28;2.90;;;;;;;0.20;70.30;99130.31;4247378;33;35685;-87
2023/12/03 01:03:17;;;;;;;3.30;3.00;;;;;;;0.09;70.49;99126.66;4253411;33;33661;-86
2023/12/03 01:05:50;;;;;;;3.33;2.75;;;;;;;0.09;70.50;99138.56;4250985;33;34248;-88
2023/12/03 01:08:19;;;;;;;5.90;3.90;;;;;;;0.16;70.97;99128.50;4253265;33;33387;-87
2023/12/03 01:10:50;;;;;;;4.00;2.50;;;;;;;0.18;70.01;99131.09;4244438;33;33236;-88
2023/12/03 01:13:21;;;;;;;3.33;3.03;;;;;;;0.35;69.54;99139.94;4251671;33;33714;-87
2023/12/03 01:15:50;;;;;;;2.75;2.35;;;;;;;0.27;69.04;99128.75;4252856;33;33228;-87
2023/12/03 01:18:19;;;;;;;2.05;1.95;;;;;;;0.15;69.47;99147.22;4255644;33;33489;-87
2023/12/03 01:20:52;;;;;;;2.40;2.20;;;;;;;0.09;69.67;99131.78;4256444;33;33331;-88
2023/12/03 01:23:20;;;;;;;3.45;2.53;;;;;;;0.12;69.93;99146.28;4253004;33;34255;-88
2023/12/03 01:25:54;;;;;;;3.30;2.80;;;;;;;0.03;70.04;99141.00;4254616;33;34258;-87
2023/12/03 01:28:24;;;;;;;2.17;2.08;;;;;;;0.24;69.75;99154.16;4252988;33;32972;-87
2023/12/03 01:30:56;;;;;;;2.70;2.50;;;;;;;0.31;68.92;99134.75;4253360;33;33379;-87
2023/12/03 01:33:25;;;;;;;2.75;2.37;;;;;;;0.11;69.60;99149.66;4252205;33;33733;-88
2023/12/03 01:35:58;;;;;;;4.30;3.15;;;;;;;-0.12;69.96;99141.53;4246120;33;33689;-87
2023/12/03 01:38:26;;;;;;;2.87;2.67;;;;;;;-0.06;70.23;99141.69;4250516;33;33783;-86
2023/12/03 01:40:57;;;;;;;4.10;3.40;;;;;;;-0.15;70.34;99142.34;4234107;33;32924;-87
2023/12/03 01:43:27;;;;;;;4.32;3.15;;;;;;;0.06;70.04;99154.66;4252214;33;33885;-87
2023/12/03 01:46:01;;;;;;;2.80;2.60;;;;;;;0.09;70.37;99164.06;4254346;33;32858;-86
2023/12/03 01:48:30;;;;;;;2.87;2.60;;;;;;;0.11;70.20;99168.38;4242191;33;34304;-86
2023/12/03 01:51:00;;;;;;;2.85;2.60;;;;;;;-0.02;70.51;99180.03;4253298;33;34440;-86
2023/12/03 01:53:29;;;;;;;5.03;4.37;;;;;;;-0.11;70.99;99186.63;4246769;33;33574;-86
2023/12/03 01:56:00;;;;;;;3.35;2.60;;;;;;;-0.01;70.92;99193.63;4252006;33;33828;-87
2023/12/03 01:58:30;;;;;;;5.37;3.83;;;;;;;-0.03;70.75;99196.13;4243756;33;33596;-86
2023/12/03 02:01:01;;;;;;;4.25;3.85;;;;;;;-0.11;71.04;99202.78;4254768;33;35300;-88
2023/12/03 02:03:31;;;;;;;3.12;2.83;;;;;;;-0.32;71.39;99208.25;4245469;33;34038;-88
2023/12/03 02:06:08;;;;;;;6.68;2.58;;;;;;;-0.45;71.72;99190.97;4251495;33;34440;-87
2023/12/03 02:08:37;;;;;;;2.50;2.30;;;;;;;-0.37;71.35;99207.28;4255817;33;34078;-87
2023/12/03 02:11:08;;;;;;;5.65;3.53;;;;;;;-0.31;70.98;99226.97;4253556;33;34192;-86
2023/12/03 02:13:38;;;;;;;4.50;3.60;;;;;;;-0.23;71.10;99222.91;4252248;33;34387;-86
2023/12/03 02:16:09;;;;;;;2.90;2.62;;;;;;;-0.12;70.50;99231.66;4249879;33;34580;-87
2023/12/03 02:18:38;;;;;;;3.60;3.30;;;;;;;0.02;69.48;99236.19;4255088;33;32279;-88
2023/12/03 02:21:10;;;;;;;2.97;2.65;;;;;;;-0.16;69.99;99255.34;4249569;33;33573;-86
2023/12/03 02:23:40;;;;;;;3.03;2.80;;;;;;;-0.22;70.34;99252.66;4251260;33;33610;-87
2023/12/03 02:26:11;;;;;;;3.77;3.40;;;;;;;-0.22;70.13;99267.94;4254620;33;34501;-87
2023/12/03 02:28:40;;;;;;;3.78;2.75;;;;;;;-0.44;70.58;99272.53;4255051;33;32797;-86
2023/12/03 02:31:09;;;;;;;2.67;2.47;;;;;;;-0.44;70.62;99290.38;4259155;33;34459;-85
2023/12/03 02:33:42;;;;;;;2.35;2.15;;;;;;;-0.54;71.58;99288.44;4248666;33;34762;-87
2023/12/03 02:54:40;;;;;;;3.87;3.47;;;;;;;0.16;69.04;99339.38;4458781;32;88397;-87
2023/12/03 02:57:09;;;;;;;5.15;2.72;;;;;;;0.16;69.04;99339.38;4436581;32;34039;-86
2023/12/03 02:59:38;;;;;;;4.25;3.58;;;;;;;-0.41;70.40;99362.63;4433340;32;34545;-86
2023/12/03 03:02:06;;;;;;;3.72;3.17;;;;;;;-0.21;69.99;99374.19;4434691;32;33738;-88
2023/12/03 03:04:35;;;;;;;3.90;3.28;;;;;;;-0.54;70.58;99369.97;4441762;32;33295;-87
2023/12/03 03:07:04;;;;;;;4.32;3.15;;;;;;;-0.48;70.54;99370.13;4433813;32;33644;-85
2023/12/03 03:09:33;;;;;;;4.28;2.95;;;;;;;-0.39;69.80;99372.03;4438408;32;34693;-86
2023/12/03 03:12:04;;;;;;;4.70;4.07;;;;;;;-0.40;70.15;99383.06;4426196;32;34088;-87
2023/12/03 03:14:32;;;;;;;5.97;3.60;;;;;;;-0.41;69.82;99396.66;4435100;32;32934;-87
2023/12/03 03:17:02;;;;;;;2.97;2.58;;;;;;;-0.23;69.32;99411.53;4445575;32;33652;-87
2023/12/03 03:19:30;;;;;;;2.65;2.45;;;;;;;-0.25;68.56;99411.47;4437056;32;34162;-87
2023/12/03 03:21:59;;;;;;;5.43;3.30;;;;;;;-0.11;68.63;99421.19;4440104;32;31819;-87
2023/12/03 03:24:28;;;;;;;4.22;3.17;;;;;;;-0.41;69.16;99432.31;4434425;32;33501;-86
2023/12/03 03:26:57;;;;;;;3.58;3.28;;;;;;;-0.36;69.14;99428.22;4438679;32;33489;-86
2023/12/03 03:29:27;;;;;;;3.00;2.62;;;;;;;-0.49;69.47;99431.22;4430749;32;33093;-88
2023/12/03 03:31:56;;;;;;;4.03;3.70;;;;;;;-0.42;69.22;99435.66;4432480;32;33197;-87
2023/12/03 03:34:25;;;;;;;3.70;3.20;;;;;;;-0.49;69.19;99438.88;4434180;32;33884;-87
2023/12/03 03:36:54;;;;;;;3.37;2.92;;;;;;;-0.80;69.50;99460.94;4441341;32;33069;-86
2023/12/03 03:39:23;;;;;;;2.92;2.72;;;;;;;-0.96;70.12;99452.03;4431572;32;33470;-87
2023/12/03 03:41:52;;;;;;;6.28;3.03;;;;;;;-0.75;69.43;99469.63;4430993;32;33674;-86
2023/12/03 03:44:20;;;;;;;3.17;2.87;;;;;;;-0.78;69.48;99455.91;4424206;32;33192;-88
2023/12/03 03:46:51;;;;;;;4.80;3.35;;;;;;;-0.69;68.96;99477.41;4425580;32;32895;-87
2023/12/03 03:49:19;;;;;;;4.55;3.28;;;;;;;-0.53;68.68;99477.81;4431438;32;35213;-87
2023/12/03 03:51:49;;;;;;;3.00;2.70;;;;;;;-0.50;68.17;99481.34;4425638;32;33587;-87
2023/12/03 03:54:18;;;;;;;5.03;2.95;;;;;;;-0.64;68.19;99480.09;4424474;32;33305;-85
2023/12/03 03:56:47;;;;;;;3.17;2.87;;;;;;;-0.70;68.20;99495.19;4415641;32;33601;-86
2023/12/03 03:59:16;;;;;;;3.03;2.78;;;;;;;-0.55;67.99;99494.78;4430028;32;33804;-86
2023/12/03 04:01:45;;;;;;;3.05;2.75;;;;;;;-0.60;67.81;99504.84;4420195;32;34047;-87
2023/12/03 04:04:18;;;;;;;3.35;3.05;;;;;;;-0.56;67.16;99523.63;4421629;32;34139;-86
2023/12/03 04:06:47;;;;;;;4.10;2.85;;;;;;;-0.81;68.04;99507.63;4430036;32;33130;-86
2023/12/03 04:09:16;;;;;;;5.25;3.67;;;;;;;-0.73;67.72;99513.78;4428485;32;33622;-85
2023/12/03 04:11:45;;;;;;;2.92;2.67;;;;;;;-0.56;67.35;99506.63;4420987;32;33759;-87
2023/12/03 04:14:16;;;;;;;2.85;2.37;;;;;;;-0.77;67.80;99514.53;4416164;32;34081;-85
2023/12/03 04:16:45;;;;;;;3.25;2.78;;;;;;;-0.72;67.32;99522.31;4415720;32;33541;-88
2023/12/03 04:19:15;;;;;;;3.85;2.70;;;;;;;-0.71;67.51;99537.63;4415619;32;33881;-87
2023/12/03 04:21:44;;;;;;;3.87;3.45;;;;;;;-0.90;68.00;99530.25;4421470;32;33143;-85
2023/12/03 04:24:13;;;;;;;2.33;2.17;;;;;;;-0.94;68.17;99531.00;4430448;32;33553;-85
2023/12/03 04:26:42;;;;;;;3.40;3.10;;;;;;;-0.77;67.23;99540.03;4422726;32;33409;-85
2023/12/03 04:29:12;;;;;;;4.10;3.75;;;;;;;-0.92;68.00;99544.63;4400746;32;33324;-85
2023/12/03 04:31:41;;;;;;;5.28;3.53;;;;;;;-0.88;67.38;99542.22;4423531;32;34452;-87
2023/12/03 04:34:10;;;;;;;4.72;3.97;;;;;;;-1.05;68.26;99553.59;4438380;32;33766;-87
2023/12/03 04:36:43;;;;;;;2.90;2.62;;;;;;;-0.98;68.49;99549.56;4426387;32;32992;-86
2023/12/03 04:39:12;;;;;;;6.20;4.47;;;;;;;-0.98;67.98;99555.50;4417514;32;33624;-86
2023/12/03 04:41:41;;;;;;;4.07;3.53;;;;;;;-1.05;68.41;99545.94;4433324;32;34027;-87
2023/12/03 04:44:09;;;;;;;4.93;3.40;;;;;;;-1.03;68.20;99543.47;4427661;32;33242;-87
2023/12/03 04:46:40;;;;;;;3.22;2.95;;;;;;;-1.05;68.52;99557.81;4426425;32;33989;-84
2023/12/03 04:49:09;;;;;;;4.32;3.42;;;;;;;-0.97;67.95;99564.00;4428949;32;34226;-85
2023/12/03 04:51:38;;;;;;;3.17;2.42;;;;;;;-1.09;68.00;99569.56;4427861;32;33226;-86
2023/12/03 04:54:08;;;;;;;4.97;3.30;;;;;;;-0.93;67.82;99573.47;4427411;32;33412;-87
2023/12/03 04:56:37;;;;;;;2.80;2.60;;;;;;;-0.99;67.59;99578.34;4433491;32;33062;-88
2023/12/03 04:59:06;;;;;;;3.20;2.90;;;;;;;-0.68;66.68;99569.97;4425947;32;33509;-84
2023/12/03 05:01:35;;;;;;;3.00;2.53;;;;;;;-0.70;66.70;99581.78;4424924;32;33696;-85
2023/12/03 05:04:04;;;;;;;2.75;2.55;;;;;;;-0.68;66.33;99577.62;4422806;32;34150;-85
2023/12/03 05:06:33;;;;;;;3.70;3.35;;;;;;;-0.88;66.57;99595.72;4426798;32;33690;-86
2023/12/03 05:09:03;;;;;;;5.28;3.20;;;;;;;-1.19;67.61;99596.41;4429136;32;34260;-85
2023/12/03 05:11:35;;;;;;;4.28;3.47;;;;;;;-1.00;67.10;99604.66;4430091;32;34839;-85
2023/12/03 05:14:04;;;;;;;6.90;3.45;;;;;;;-1.08;66.96;99618.00;4429118;32;34050;-86
2023/12/03 05:16:33;;;;;;;3.72;3.20;;;;;;;-1.26;67.24;99621.63;4411847;32;33137;-86
2023/12/03 05:19:02;;;;;;;3.90;3.50;;;;;;;-1.41;67.79;99633.03;4432236;32;34816;-84
2023/12/03 05:21:31;;;;;;;3.47;3.00;;;;;;;-1.34;67.09;99623.91;4430165;32;34785;-86
2023/12/03 05:24:00;;;;;;;3.85;3.47;;;;;;;-1.38;67.09;99630.56;4420629;32;33442;-86
2023/12/03 05:26:29;;;;;;;5.82;3.90;;;;;;;-1.39;67.23;99646.66;4427306;32;33560;-85
2023/12/03 05:28:59;;;;;;;2.85;2.62;;;;;;;-1.24;67.07;99641.22;4429885;32;33297;-85
2023/12/03 05:31:29;;;;;;;3.53;3.27;;;;;;;-1.23;66.25;99636.97;4416133;32;33742;-86
2023/12/03 05:33:57;;;;;;;3.45;3.15;;;;;;;-1.31;66.26;99640.13;4401379;32;33127;-87
2023/12/03 05:36:26;;;;;;;3.10;2.80;;;;;;;-1.12;65.98;99667.06;4414573;32;34152;-84
2023/12/03 05:38:57;;;;;;;3.45;3.15;;;;;;;-1.21;65.96;99654.03;4420483;32;34435;-85
2023/12/03 05:41:26;;;;;;;3.40;2.90;;;;;;;-1.03;65.44;99663.97;4427075;32;33555;-84
2023/12/03 05:43:55;;;;;;;2.50;2.30;;;;;;;-1.18;65.85;99669.44;4424482;32;33723;-84
2023/12/03 05:46:26;;;;;;;2.58;2.37;;;;;;;-1.44;66.05;99671.09;4414639;32;33282;-87
2023/12/03 05:48:54;;;;;;;3.08;2.70;;;;;;;-1.43;66.06;99677.03;4415755;32;32739;-88
2023/12/03 05:51:23;;;;;;;3.42;3.12;;;;;;;-1.39;65.77;99677.19;4435817;32;34002;-85
2023/12/03 05:53:52;;;;;;;2.78;2.58;;;;;;;-1.41;66.45;99675.41;4424270;32;33482;-84
2023/12/03 05:56:22;;;;;;;3.28;2.97;;;;;;;-1.60;66.51;99684.94;4429566;32;32675;-85
2023/12/03 05:58:51;;;;;;;3.80;3.05;;;;;;;-1.48;66.27;99696.37;4415522;32;35891;-84
2023/12/03 06:01:23;;;;;;;3.12;2.85;;;;;;;-1.50;66.07;99688.69;4419970;32;35417;-85
2023/12/03 06:03:53;;;;;;;3.30;3.03;;;;;;;-1.56;66.19;99689.34;4414825;32;34445;-85
2023/12/03 06:06:22;;;;;;;4.85;3.10;;;;;;;-1.51;65.83;99699.69;4414719;32;32868;-84
2023/12/03 06:08:51;;;;;;;3.03;2.72;;;;;;;-1.67;66.20;99705.03;4425316;32;34577;-84
2023/12/03 06:11:20;;;;;;;5.10;3.53;;;;;;;-1.54;66.21;99707.22;4422905;32;33278;-86
2023/12/03 06:13:49;;;;;;;3.67;3.37;;;;;;;-1.40;65.55;99716.19;4428606;32;34167;-84
2023/12/03 06:16:17;;;;;;;3.40;2.95;;;;;;;-1.17;65.01;99718.66;4428165;32;32886;-87
2023/12/03 06:18:49;;;;;;;4.18;3.78;;;;;;;-1.35;64.84;99716.34;4423705;32;33736;-85
2023/12/03 06:21:23;;;;;;;3.00;2.80;;;;;;;-1.20;65.13;99708.38;4426917;32;33732;-83
2023/12/03 06:23:52;;;;;;;2.95;2.67;;;;;;;-1.31;64.34;99723.25;4419739;32;32816;-84
2023/12/03 06:26:21;;;;;;;4.70;3.15;;;;;;;-1.36;64.22;99725.66;4422927;32;33778;-84
2023/12/03 06:28:50;;;;;;;3.25;2.95;;;;;;;-1.39;64.54;99729.78;4408975;32;32464;-86
2023/12/03 06:31:19;;;;;;;3.15;2.85;;;;;;;-1.45;64.98;99739.72;4423846;32;33682;-84
2023/12/03 06:33:48;;;;;;;3.00;2.80;;;;;;;-1.25;64.27;99738.75;4427894;32;32985;-87
2023/12/03 06:36:16;;;;;;;2.70;2.50;;;;;;;-1.35;64.37;99732.50;4426214;32;34001;-84
2023/12/03 06:38:47;;;;;;;4.85;3.12;;;;;;;-1.39;64.41;99737.41;4423267;32;33399;-83
2023/12/03 06:41:15;;;;;;;3.62;3.25;;;;;;;-1.45;64.85;99755.88;4417136;32;33047;-83
2023/12/03 06:43:44;;;;;;;4.72;3.90;;;;;;;-1.38;64.72;99754.41;4423594;32;33303;-87
2023/12/03 06:46:13;;;;;;;3.05;2.78;;;;;;;-1.36;64.08;99753.62;4428768;32;32561;-85
2023/12/03 06:48:42;;;;;;;2.95;2.67;;;;;;;-1.41;64.41;99760.25;4421374;32;34240;-86
2023/12/03 06:51:11;;;;;;;3.72;3.25;;;;;;;-1.17;63.93;99765.34;4421868;32;34450;-86
2023/12/03 06:53:40;;;;;;;3.30;2.70;;;;;;;-1.25;63.76;99764.22;4426789;32;33087;-87
2023/12/03 06:56:11;;;;;;;5.43;4.07;;;;;;;-1.26;64.23;99761.59;4433752;32;33069;-85
2023/12/03 06:58:41;;;;;;;2.58;2.37;;;;;;;-1.33;63.61;99770.69;4409109;32;33259;-85
2023/12/03 07:01:09;;;;;;;4.68;3.62;;;;;;;-1.38;64.40;99769.66;4427625;32;32297;-86
2023/12/03 07:03:38;;;;;;;4.95;3.58;;;;;;;-1.09;64.03;99778.31;4423324;32;32412;-84
2023/12/03 07:06:09;;;;;;;3.50;2.92;;;;;;;-1.29;63.95;99787.81;4420848;32;32622;-84
2023/12/03 07:08:38;;;;;;;5.82;4.62;;;;;;;-1.24;63.74;99782.88;4429540;32;34581;-83
2023/12/03 07:11:07;;;;;;;3.58;3.28;;;;;;;-1.38;64.31;99788.34;4428072;32;33687;-82
2023/12/03 07:13:37;;;;;;;2.12;2.03;;;;;;;-1.17;63.82;99806.06;4423873;32;33892;-82
2023/12/03 07:16:09;;;;;;;2.77;2.53;;;;;;;-1.32;63.65;99815.72;4403153;32;32545;-82
2023/12/03 07:18:38;;;;;;;;;;;;;;;-1.52;64.61;99820.06;4433527;32;33530;-85
2023/12/03 07:21:07;;;;;;;5.40;3.50;;;;;;;-1.43;64.24;99819.53;4421210;32;34785;-83
2023/12/03 07:23:36;;;;;;;3.40;2.80;;;;;;;-1.42;64.46;99842.50;4414169;32;33377;-82
2023/12/03 07:26:09;;;;;;;6.87;3.80;;;;;;;-1.08;63.90;99869.19;4422111;32;34119;-83
2023/12/03 07:28:40;;;;;;;3.78;3.35;;;;;;;-1.05;63.00;99846.38;4400976;32;32244;-83
2023/12/03 07:31:09;;;;;;;2.08;1.98;;;;;;;-1.03;63.49;99852.41;4409934;32;33086;-82
2023/12/03 07:33:38;;;;;;;3.58;3.28;;;;;;;-0.87;62.50;99859.78;4431384;32;34084;-83
2023/12/03 07:36:08;;;;;;;3.87;3.30;;;;;;;-1.19;63.40;99863.69;4423399;32;34148;-85
2023/12/03 07:38:37;;;;;;;4.32;3.45;;;;;;;-1.19;63.79;99878.09;4415506;32;33359;-83
2023/12/03 07:41:10;;;;;;;2.70;2.50;;;;;;;-0.81;62.96;99888.81;4421423;32;33618;-82
2023/12/03 07:43:40;;;;;;;2.62;2.42;;;;;;;-0.93;62.94;99887.56;4406843;32;34016;-82
2023/12/03 07:46:10;;;;;;;3.20;2.90;;;;;;;-1.00;63.17;99884.75;4429412;32;32758;-82
2023/12/03 07:48:38;;;;;;;3.25;2.95;;;;;;;-1.11;63.40;99903.03;4424305;32;33922;-85
2023/12/03 07:51:10;;;;;;;2.33;2.12;;;;;;;-1.11;63.40;99917.47;4424496;32;33834;-86
2023/12/03 07:53:40;;;;;;;2.47;2.33;;;;;;;-1.17;63.17;99918.06;4425856;32;33524;-82
2023/12/03 07:56:12;;;;;;;4.93;2.90;;;;;;;-1.10;63.44;99916.63;4406449;32;32107;-82
2023/12/03 07:58:43;;;;;;;4.57;3.55;;;;;;;-1.04;63.67;99914.28;4423201;32;33826;-83
2023/12/03 08:01:12;;;;;;;3.45;3.08;;;;;;;-0.65;63.20;99911.47;4423318;32;33525;-84
2023/12/03 08:03:41;;;;;;;5.18;2.72;;;;;;;-0.69;62.61;99915.59;4425824;32;32210;-85
2023/12/03 08:06:10;;;;;;;3.30;3.03;;;;;;;-0.46;62.21;99918.06;4424177;32;34152;-84
2023/12/03 08:08:39;;;;;;;2.85;2.62;;;;;;;-0.41;62.07;99916.56;4422455;32;34235;-83
2023/12/03 08:11:08;;;;;;;3.22;2.92;;;;;;;-0.72;62.66;99909.53;4422769;32;34895;-83
2023/12/03 08:13:37;;;;;;;2.75;2.55;;;;;;;-0.65;62.64;99932.72;4421780;32;33673;-84
2023/12/03 08:16:09;;;;;;;7.18;2.87;;;;;;;-0.76;62.83;99928.06;4428105;32;34194;-83
2023/12/03 08:18:38;;;;;;;3.87;3.08;;;;;;;-0.67;62.46;99913.09;4421471;32;34549;-82
2023/12/03 08:21:07;;;;;;;2.92;2.70;;;;;;;-0.59;62.36;99923.56;4422636;32;34061;-84
2023/12/03 08:23:36;;;;;;;4.03;2.78;;;;;;;-0.64;62.52;99918.28;4421758;32;33344;-85
2023/12/03 08:26:06;;;;;;;3.17;2.90;;;;;;;-0.44;61.86;99922.38;4427643;32;32920;-85
2023/12/03 08:28:35;;;;;;;3.15;2.87;;;;;;;-0.57;61.95;99930.44;4423530;32;33816;-83
2023/12/03 08:31:04;;;;;;;2.47;2.28;;;;;;;-0.84;62.15;99930.34;4416843;32;33933;-81
2023/12/03 08:33:34;;;;;;;3.72;3.37;;;;;;;-0.81;61.91;99938.06;4419777;32;33939;-84
2023/12/03 08:36:03;;;;;;;3.55;3.25;;;;;;;-0.87;62.01;99930.19;4427777;32;33200;-83
2023/12/03 08:38:32;;;;;;;2.60;2.40;;;;;;;-0.77;61.58;99937.38;4435154;32;33833;-82
2023/12/03 08:41:01;;;;;;;4.62;3.22;;;;;;;-0.85;61.58;99933.66;4421114;32;33619;-81
2023/12/03 08:43:30;;;;;;;2.47;2.28;;;;;;;-0.68;61.23;99937.72;4417685;32;34395;-82
2023/12/03 08:45:59;;;;;;;2.50;2.30;;;;;;;-0.87;61.20;99914.91;4421138;32;32551;-85
2023/12/03 08:48:28;;;;;;;3.78;2.80;;;;;;;-0.79;61.25;99933.03;4423513;32;35109;-84
2023/12/03 08:50:58;;;;;;;2.85;2.65;;;;;;;-0.65;61.26;99952.25;4426373;32;34827;-83
2023/12/03 08:53:27;;;;;;;3.70;2.75;;;;;;;-0.72;60.41;99933.31;4428567;32;32532;-82
2023/12/03 08:55:59;;;;;;;3.70;3.05;;;;;;;-0.84;60.51;99919.28;4428638;32;33089;-82
2023/12/03 08:58:28;;;;;;;2.45;2.25;;;;;;;-0.72;60.16;99935.88;4424283;32;33634;-84
2023/12/03 09:00:57;;;;;;;2.78;2.58;;;;;;;-0.76;60.02;99921.28;4429157;32;34913;-81
2023/12/03 09:03:25;;;;;;;3.35;2.40;;;;;;;-0.76;60.37;99938.25;4426956;32;33538;-81
2023/12/03 09:05:55;;;;;;;2.70;2.50;;;;;;;-0.80;60.27;99952.53;4426936;32;33830;-81
2023/12/03 09:08:25;;;;;;;2.78;2.55;;;;;;;-0.70;60.56;99963.91;4420652;32;33740;-82
2023/12/03 09:10:54;;;;;;;2.47;2.28;;;;;;;-0.61;60.13;99977.00;4430864;32;33996;-83
2023/12/03 09:13:22;;;;;;;2.72;2.53;;;;;;;-0.70;60.46;99975.00;4422649;32;34466;-84
2023/12/03 09:15:52;;;;;;;2.50;2.30;;;;;;;-0.68;59.68;99968.28;4421799;32;33294;-83
2023/12/03 09:18:20;;;;;;;3.22;2.92;;;;;;;-0.55;59.26;99986.56;4423551;32;34392;-82
2023/12/03 09:20:50;;;;;;;2.58;2.40;;;;;;;-0.63;59.68;99980.31;4422823;32;35226;-83
2023/12/03 09:23:19;;;;;;;7.22;2.85;;;;;;;-0.61;59.83;99993.97;4417504;32;33620;-82
2023/12/03 09:25:49;;;;;;;3.08;2.78;;;;;;;-0.64;59.61;99982.00;4423706;32;32856;-81
2023/12/03 09:28:18;;;;;;;2.10;2.00;;;;;;;-0.59;59.59;99990.66;4418911;32;34565;-82
2023/12/03 09:30:47;;;;;;;2.47;2.00;;;;;;;-0.49;59.18;99999.50;4417769;32;34745;-82
2023/12/03 09:33:15;;;;;;;2.60;2.40;;;;;;;-0.44;59.29;99983.56;4420645;32;34501;-85
2023/12/03 09:35:44;;;;;;;2.95;2.75;;;;;;;-0.37;59.26;99983.78;4414610;32;34882;-85
2023/12/03 09:38:13;;;;;;;3.60;3.12;;;;;;;-0.26;59.14;99983.34;4418909;32;33594;-85
2023/12/03 09:40:42;;;;;;;2.25;2.15;;;;;;;0.11;58.61;99991.41;4417141;32;33976;-82
2023/12/03 09:43:14;;;;;;;2.20;2.10;;;;;;;-0.15;58.44;100004.13;4427038;32;33622;-82
2023/12/03 09:45:44;;;;;;;4.97;3.25;;;;;;;-0.50;58.67;99982.50;4414311;32;33145;-82
2023/12/03 09:48:13;;;;;;;3.12;2.83;;;;;;;-0.41;58.91;99974.28;4427446;32;33002;-83
2023/12/03 09:50:45;;;;;;;2.65;2.45;;;;;;;-0.48;59.07;99971.53;4418298;32;33152;-82
2023/12/03 09:53:16;;;;;;;4.53;2.60;;;;;;;-0.49;58.70;99971.47;4421367;32;34499;-82
2023/12/03 09:55:45;;;;;;;2.30;2.10;;;;;;;-0.44;59.45;99958.06;4423987;32;32983;-83
2023/12/03 09:58:16;;;;;;;3.25;2.97;;;;;;;-0.49;58.93;99964.69;4420999;32;33808;-83
2023/12/03 10:00:45;;;;;;;;;;;;;;;-0.34;59.05;100004.28;4421971;32;33506;-82
2023/12/03 10:03:13;;;;;;;2.80;2.60;;;;;;;-0.16;58.12;100010.03;4422095;32;34046;-84
2023/12/03 10:05:44;;;;;;;2.60;2.40;;;;;;;0.15;58.14;100006.00;4423866;32;32897;-83
2023/12/03 10:08:14;;;;;;;2.97;2.70;;;;;;;0.20;57.35;100012.97;4415473;32;32438;-82
2023/12/03 10:10:44;;;;;;;2.33;2.20;;;;;;;-0.01;57.71;99996.94;4422055;32;34513;-84
2023/12/03 10:13:15;;;;;;;2.40;2.28;;;;;;;-0.18;58.52;100011.66;4422251;32;33390;-84
2023/12/03 10:15:45;;;;;;;4.22;3.10;;;;;;;-0.01;58.05;100009.69;4424106;32;33152;-82
2023/12/03 10:18:15;;;;;;;3.75;3.28;;;;;;;-0.04;58.23;100009.59;4424285;32;34111;-85
2023/12/03 10:20:44;;;;;;;3.05;2.83;;;;;;;0.06;58.29;100026.09;4424207;32;33860;-84
2023/12/03 10:23:15;;;;;;;2.58;2.30;;;;;;;0.45;57.63;100015.47;4421332;32;33528;-83
2023/12/03 10:25:44;;;;;;;4.45;3.42;;;;;;;0.36;57.56;100031.34;4422310;32;33352;-83
2023/12/03 10:28:13;;;;;;;3.67;2.87;;;;;;;0.23;57.90;100040.28;4425582;32;34450;-83
2023/12/03 10:30:43;;;;;;;3.58;2.60;;;;;;;0.24;58.04;100028.38;4423446;32;33563;-86
2023/12/03 10:33:12;;;;;;;6.32;3.42;;;;;;;0.06;57.93;100023.53;4423293;32;33513;-83
2023/12/03 10:35:41;;;;;;;2.62;2.42;;;;;;;0.14;58.75;100009.34;4414663;32;33655;-84
2023/12/03 10:38:10;;;;;;;2.47;2.25;;;;;;;0.34;57.88;100004.91;4421602;32;33644;-83
2023/12/03 10:40:40;;;;;;;2.87;2.55;;;;;;;0.36;57.95;100010.94;4424114;32;34838;-83
2023/12/03 10:43:12;;;;;;;2.97;2.50;;;;;;;0.07;58.58;99992.09;4420700;32;34458;-85
2023/12/03 10:45:42;;;;;;;5.28;3.10;;;;;;;0.29;58.35;99983.47;4418319;32;33880;-82
2023/12/03 10:48:12;;;;;;;4.35;2.62;;;;;;;0.21;58.22;99984.09;4420263;32;33473;-84
2023/12/03 10:50:43;;;;;;;3.00;2.25;;;;;;;0.01;58.79;99977.47;4421837;32;32763;-83
2023/12/03 10:53:14;;;;;;;2.47;2.28;;;;;;;-0.08;59.31;99987.34;4416941;32;33905;-85
2023/12/03 10:55:44;;;;;;;3.05;2.75;;;;;;;0.07;59.36;99994.66;4404462;32;33735;-85
2023/12/03 10:58:19;;;;;;;3.25;2.95;;;;;;;-0.05;59.69;100008.75;4416456;32;34545;-82
2023/12/03 11:00:52;;;;;;;1.92;1.83;;;;;;;0.16;59.45;100023.91;4399467;32;34080;-85
2023/12/03 11:03:23;;;;;;;4.28;3.28;;;;;;;0.27;59.31;100021.72;4420055;32;33802;-82
2023/12/03 11:05:55;;;;;;;3.50;3.20;;;;;;;0.35;58.93;100037.28;4419917;32;34061;-84
2023/12/03 11:08:26;;;;;;;3.72;3.12;;;;;;;0.43;59.53;100038.38;4422235;32;33721;-84
2023/12/03 11:10:54;;;;;;;3.80;3.45;;;;;;;0.73;57.96;100037.69;4418598;32;34341;-83
2023/12/03 11:13:24;;;;;;;3.17;2.92;;;;;;;0.49;57.37;100053.94;4425945;32;33644;-83
2023/12/03 11:16:06;;;;;;;4.70;3.62;;;;;;;0.66;57.59;100051.91;4424172;32;33648;-83
2023/12/03 11:18:39;;;;;;;3.20;2.90;;;;;;;0.60;57.58;100050.06;4417808;32;34626;-83
2023/12/03 11:21:14;;;;;;;2.97;2.67;;;;;;;0.75;58.24;100054.78;4418032;32;33490;-86
2023/12/03 11:24:06;;;;;;;2.90;2.47;;;;;;;1.16;57.27;100051.75;4422186;32;33596;-86
2023/12/03 11:26:35;;;;;;;4.03;3.50;;;;;;;0.74;57.26;100047.06;4424507;32;33262;-82
2023/12/03 11:29:05;;;;;;;3.05;2.33;;;;;;;0.53;58.03;100065.97;4430340;32;33382;-84
2023/12/03 11:31:35;;;;;;;4.72;3.70;;;;;;;0.59;57.92;100083.19;4407677;32;32924;-84
2023/12/03 11:34:05;;;;;;;2.40;2.20;;;;;;;0.67;58.24;100084.28;4421862;32;34382;-86
2023/12/03 11:36:36;;;;;;;2.83;2.55;;;;;;;0.75;57.21;100082.88;4418220;32;32673;-83
2023/12/03 11:39:07;;;;;;;2.00;1.90;;;;;;;0.54;57.97;100079.59;4425679;32;33610;-84
2023/12/03 11:41:40;;;;;;;2.90;2.60;;;;;;;0.66;57.60;100082.56;4419643;32;35053;-83
2023/12/03 11:44:18;;;;;;;3.72;2.67;;;;;;;0.89;57.00;100090.09;4415582;32;32394;-83
2023/12/03 11:47:01;;;;;;;3.17;2.90;;;;;;;1.02;57.18;100087.13;4429764;32;33082;-85
2023/12/03 11:49:32;;;;;;;3.42;2.75;;;;;;;0.97;56.62;100101.44;4429904;32;33430;-82
2023/12/03 11:52:01;;;;;;;4.93;2.95;;;;;;;0.94;57.56;100089.41;4435218;32;33538;-84
2023/12/03 11:54:37;;;;;;;3.30;2.45;;;;;;;1.32;56.60;100096.56;4430269;32;33605;-83
2023/12/03 11:57:15;;;;;;;4.78;3.42;;;;;;;0.93;56.54;100094.50;4423218;32;32883;-83
2023/12/03 11:59:44;;;;;;;4.03;2.72;;;;;;;1.03;56.54;100083.75;4423951;32;32764;-84
2023/12/03 12:02:14;;;;;;;2.80;2.60;;;;;;;1.05;56.46;100077.84;4422398;32;34008;-84
2023/12/03 12:04:43;;;;;;;3.92;3.03;;;;;;;0.96;56.05;100086.91;4428491;32;33400;-83